createdAt,value
2022-12-06T00:01:37.622Z,10.27
2022-12-06T00:04:09.073Z,10.26
2022-12-06T00:06:44.877Z,10.64
2022-12-06T00:09:19.891Z,10.54
2022-12-06T00:11:48.269Z,10.35
2022-12-06T00:14:18.024Z,10.59
2022-12-06T00:16:47.456Z,10.56
2022-12-06T00:19:20.628Z,10.62
2022-12-06T00:21:50.468Z,10.39
2022-12-06T00:24:21.957Z,10.44
2022-12-06T00:26:51.257Z,10.28
2022-12-06T00:29:24.664Z,10.08
2022-12-06T00:31:54.029Z,10.31
2022-12-06T00:34:22.158Z,10.25
2022-12-06T00:36:50.641Z,10.19
2022-12-06T00:39:18.902Z,10.09
2022-12-06T00:41:48.673Z,10.20
2022-12-06T00:44:17.152Z,10.12
2022-12-06T00:46:45.429Z,10.39
2022-12-06T00:49:13.729Z,10.32
2022-12-06T00:51:43.365Z,10.39
2022-12-06T00:54:14.871Z,10.40
2022-12-06T00:56:43.165Z,10.37
2022-12-06T00:59:11.567Z,10.51
2022-12-06T01:01:39.926Z,10.27
2022-12-06T01:04:08.227Z,10.03
2022-12-06T01:06:38.685Z,9.73
2022-12-06T01:09:10.058Z,9.65
2022-12-06T01:11:38.934Z,9.74
2022-12-06T01:14:07.432Z,9.64
2022-12-06T01:16:35.986Z,9.15
2022-12-06T01:19:06.219Z,9.24
2022-12-06T01:21:34.758Z,9.45
2022-12-06T01:24:02.834Z,9.53
2022-12-06T01:26:33.818Z,9.70
2022-12-06T01:29:02.659Z,9.75
2022-12-06T01:31:37.639Z,9.68
2022-12-06T01:34:16.198Z,9.72
2022-12-06T01:36:45.837Z,9.74
2022-12-06T01:39:13.896Z,9.71
2022-12-06T01:41:43.114Z,9.56
2022-12-06T01:44:47.126Z,9.73
2022-12-06T01:47:28.748Z,9.73
2022-12-06T01:50:16.878Z,9.80
2022-12-06T01:53:07.189Z,9.81
2022-12-06T01:55:39.236Z,9.88
2022-12-06T01:58:12.427Z,9.89
2022-12-06T02:00:40.507Z,9.89
2022-12-06T02:03:16.921Z,9.86
2022-12-06T02:05:45.727Z,9.96
2022-12-06T02:08:15.815Z,9.98
2022-12-06T02:10:44.021Z,9.94
2022-12-06T02:13:14.061Z,9.85
2022-12-06T02:16:13.737Z,9.78
2022-12-06T02:19:33.958Z,9.96
2022-12-06T02:22:31.000Z,9.66
2022-12-06T02:25:43.564Z,9.41
2022-12-06T02:28:23.806Z,9.12
2022-12-06T02:31:01.732Z,9.30
2022-12-06T02:33:41.439Z,9.14
2022-12-06T02:36:31.797Z,9.09
2022-12-06T02:39:32.207Z,9.34
2022-12-06T02:42:09.207Z,8.75
2022-12-06T02:44:43.458Z,8.97
2022-12-06T02:47:13.788Z,8.90
2022-12-06T02:49:46.878Z,9.01
2022-12-06T02:52:20.908Z,9.06
2022-12-06T02:54:51.211Z,8.99
2022-12-06T02:57:25.762Z,8.93
2022-12-06T02:59:55.190Z,9.04
2022-12-06T03:02:24.823Z,9.07
2022-12-06T03:04:52.978Z,9.35
2022-12-06T03:07:27.129Z,8.98
2022-12-06T03:10:33.568Z,9.25
2022-12-06T03:13:25.351Z,9.00
2022-12-06T03:16:10.737Z,9.29
2022-12-06T03:18:59.027Z,9.09
2022-12-06T03:21:41.848Z,9.28
2022-12-06T03:24:14.438Z,9.25
2022-12-06T03:26:46.469Z,9.15
2022-12-06T03:29:18.567Z,9.26
2022-12-06T03:31:49.819Z,9.38
2022-12-06T03:34:23.549Z,9.13
2022-12-06T03:36:53.567Z,9.08
2022-12-06T03:39:30.499Z,9.43
2022-12-06T03:41:59.859Z,9.37
2022-12-06T03:44:28.267Z,9.28
2022-12-06T03:47:19.530Z,9.39
2022-12-06T03:50:10.386Z,9.26
2022-12-06T03:52:40.076Z,9.06
2022-12-06T03:55:09.759Z,9.10
2022-12-06T03:57:37.839Z,9.16
2022-12-06T04:00:07.888Z,9.43
2022-12-06T04:02:39.608Z,9.37
2022-12-06T04:05:08.432Z,9.27
2022-12-06T04:07:36.999Z,9.38
2022-12-06T04:10:06.489Z,9.14
2022-12-06T04:12:54.492Z,9.00
2022-12-06T04:15:24.201Z,9.02
2022-12-06T04:18:10.729Z,9.17
2022-12-06T04:21:19.573Z,8.75
2022-12-06T04:23:50.437Z,8.87
2022-12-06T04:26:22.460Z,8.85
2022-12-06T04:29:10.850Z,8.67
2022-12-06T04:31:59.411Z,9.02
2022-12-06T04:34:46.172Z,9.05
2022-12-06T04:37:32.751Z,8.90
2022-12-06T04:40:01.266Z,9.01
2022-12-06T04:42:48.547Z,9.06
2022-12-06T04:45:16.581Z,9.06
2022-12-06T04:47:45.028Z,9.04
2022-12-06T04:50:13.010Z,8.89
2022-12-06T04:52:41.421Z,8.90
2022-12-06T04:55:09.817Z,8.69
2022-12-06T04:57:38.751Z,8.93
2022-12-06T05:00:07.958Z,8.82
2022-12-06T05:02:37.398Z,9.02
2022-12-06T05:05:06.201Z,8.85
2022-12-06T05:07:35.288Z,8.74
2022-12-06T05:10:03.978Z,8.87
2022-12-06T05:12:32.508Z,8.84
2022-12-06T05:15:00.508Z,8.83
2022-12-06T05:17:29.938Z,8.77
2022-12-06T05:19:58.379Z,8.91
2022-12-06T05:22:33.317Z,9.08
2022-12-06T05:25:01.303Z,8.98
2022-12-06T05:27:34.412Z,8.92
2022-12-06T05:30:05.967Z,8.93
2022-12-06T05:32:35.558Z,8.98
2022-12-06T05:35:03.689Z,8.75
2022-12-06T05:37:33.196Z,8.76
2022-12-06T05:40:01.634Z,8.88
2022-12-06T05:42:30.307Z,8.85
2022-12-06T05:44:59.242Z,8.70
2022-12-06T05:47:27.608Z,8.36
2022-12-06T05:49:55.658Z,8.62
2022-12-06T05:52:24.070Z,8.57
2022-12-06T05:54:52.178Z,8.56
2022-12-06T05:57:21.778Z,8.85
2022-12-06T05:59:49.871Z,8.70
2022-12-06T06:02:18.562Z,8.71
2022-12-06T06:04:46.918Z,8.73
2022-12-06T06:07:15.278Z,8.49
2022-12-06T06:09:43.471Z,8.44
2022-12-06T06:12:12.931Z,8.48
2022-12-06T06:14:41.348Z,8.40
2022-12-06T06:17:09.800Z,8.58
2022-12-06T06:19:37.859Z,8.45
2022-12-06T06:22:07.889Z,8.41
2022-12-06T06:24:37.908Z,8.28
2022-12-06T06:27:07.607Z,8.49
2022-12-06T06:29:36.922Z,8.60
2022-12-06T06:32:08.034Z,8.57
2022-12-06T06:34:36.809Z,8.64
2022-12-06T06:37:05.207Z,8.73
2022-12-06T06:39:33.338Z,8.49
2022-12-06T06:42:01.797Z,8.41
2022-12-06T06:44:29.850Z,8.27
2022-12-06T06:46:58.366Z,8.45
2022-12-06T06:49:26.430Z,8.04
2022-12-06T06:51:54.821Z,8.26
2022-12-06T06:54:24.011Z,8.49
2022-12-06T06:56:55.943Z,8.63
2022-12-06T06:59:25.468Z,8.58
2022-12-06T07:01:54.086Z,8.48
2022-12-06T07:04:22.901Z,8.15
2022-12-06T07:06:51.487Z,8.06
2022-12-06T07:09:20.638Z,8.31
2022-12-06T07:11:49.060Z,8.31
2022-12-06T07:14:17.051Z,8.42
2022-12-06T07:16:45.541Z,8.23
2022-12-06T07:19:13.678Z,8.06
2022-12-06T07:21:42.029Z,8.19
2022-12-06T07:24:10.977Z,8.50
2022-12-06T07:26:39.297Z,8.41
2022-12-06T07:29:07.217Z,8.41
2022-12-06T07:31:35.630Z,8.47
2022-12-06T07:34:04.140Z,8.67
2022-12-06T07:36:33.533Z,8.74
2022-12-06T07:39:01.600Z,8.03
2022-12-06T07:41:49.501Z,8.31
2022-12-06T07:44:58.299Z,8.40
2022-12-06T07:47:38.151Z,8.16
2022-12-06T07:50:12.872Z,8.34
2022-12-06T07:52:46.186Z,8.50
2022-12-06T07:55:14.466Z,8.74
2022-12-06T07:57:44.230Z,8.57
2022-12-06T08:00:17.039Z,8.92
2022-12-06T08:02:45.840Z,8.70
2022-12-06T08:05:14.702Z,8.86
2022-12-06T08:07:44.353Z,9.04
2022-12-06T08:10:12.602Z,9.08
2022-12-06T08:12:43.754Z,9.13
2022-12-06T08:15:14.811Z,9.07
2022-12-06T08:17:43.286Z,9.09
2022-12-06T08:20:12.653Z,9.28
2022-12-06T08:22:41.116Z,9.05
2022-12-06T08:25:09.639Z,9.12
2022-12-06T08:27:37.988Z,8.86
2022-12-06T08:30:06.694Z,9.14
2022-12-06T08:32:35.102Z,9.02
2022-12-06T08:35:03.077Z,9.35
2022-12-06T08:37:31.920Z,9.31
2022-12-06T08:40:00.324Z,9.46
2022-12-06T08:42:30.329Z,9.44
2022-12-06T08:44:58.423Z,9.38
2022-12-06T08:47:26.780Z,9.15
2022-12-06T08:49:54.899Z,9.56
2022-12-06T08:52:23.374Z,9.35
2022-12-06T08:54:51.430Z,9.33
2022-12-06T08:57:19.821Z,9.27
2022-12-06T08:59:48.151Z,9.81
2022-12-06T09:02:16.605Z,9.59
2022-12-06T09:04:44.886Z,9.67
2022-12-06T09:07:13.220Z,9.76
2022-12-06T09:09:41.315Z,9.37
2022-12-06T09:12:09.703Z,9.73
2022-12-06T09:14:37.840Z,9.74
2022-12-06T09:17:06.563Z,9.82
2022-12-06T09:19:35.070Z,9.62
2022-12-06T09:22:03.547Z,9.93
2022-12-06T09:24:31.624Z,9.89
2022-12-06T09:26:59.930Z,9.95
2022-12-06T09:29:27.904Z,9.84
2022-12-06T09:31:57.080Z,9.62
2022-12-06T09:34:25.320Z,9.73
2022-12-06T09:37:03.000Z,9.82
2022-12-06T09:40:00.190Z,9.25
2022-12-06T09:42:55.410Z,8.93
2022-12-06T09:45:26.241Z,9.40
2022-12-06T09:48:32.612Z,9.19
2022-12-06T09:51:03.620Z,9.44
2022-12-06T09:54:11.790Z,9.51
2022-12-06T09:57:02.391Z,9.47
2022-12-06T09:59:42.099Z,10.20
2022-12-06T10:02:24.137Z,10.36
2022-12-06T10:05:15.640Z,10.60
2022-12-06T10:08:11.805Z,10.99
2022-12-06T10:10:49.373Z,10.99
2022-12-06T10:13:33.244Z,11.13
2022-12-06T10:16:10.618Z,10.98
2022-12-06T10:18:50.608Z,11.27
2022-12-06T10:21:40.493Z,11.30
2022-12-06T10:24:33.561Z,11.55
2022-12-06T10:27:12.695Z,11.91
2022-12-06T10:29:47.282Z,13.01
2022-12-06T10:32:41.907Z,13.98
2022-12-06T10:35:25.120Z,14.20
2022-12-06T10:38:34.982Z,14.33
2022-12-06T10:41:18.463Z,14.79
2022-12-06T10:44:11.755Z,15.25
2022-12-06T10:47:04.849Z,14.96
2022-12-06T10:49:57.795Z,15.11
2022-12-06T10:52:28.563Z,14.08
2022-12-06T10:55:02.701Z,13.95
2022-12-06T10:57:36.710Z,14.59
2022-12-06T11:00:16.698Z,14.75
2022-12-06T11:02:58.525Z,14.94
2022-12-06T11:05:55.802Z,15.35
2022-12-06T11:08:49.093Z,15.77
2022-12-06T11:11:31.785Z,14.62
2022-12-06T11:14:27.501Z,14.06
2022-12-06T11:17:05.813Z,13.21
2022-12-06T11:19:40.303Z,13.25
2022-12-06T11:22:34.572Z,13.02
2022-12-06T11:26:00.927Z,12.39
2022-12-06T11:28:44.612Z,12.34
2022-12-06T11:31:21.379Z,12.57
2022-12-06T11:33:49.873Z,11.90
2022-12-06T11:36:19.131Z,11.84
2022-12-06T11:38:48.950Z,11.83
2022-12-06T11:41:25.391Z,12.42
2022-12-06T11:43:56.203Z,12.46
2022-12-06T11:46:25.929Z,12.33
2022-12-06T11:48:57.671Z,12.38
2022-12-06T11:51:26.100Z,12.45
2022-12-06T11:54:22.319Z,12.83
2022-12-06T11:56:51.230Z,12.51
2022-12-06T11:59:29.570Z,12.95
2022-12-06T12:02:03.726Z,13.06
2022-12-06T12:04:37.039Z,13.25
2022-12-06T12:07:17.530Z,12.71
2022-12-06T12:09:59.983Z,12.27
2022-12-06T12:12:56.761Z,12.56
2022-12-06T12:15:28.094Z,12.40
2022-12-06T12:17:59.180Z,12.48
2022-12-06T12:20:34.201Z,13.09
2022-12-06T12:23:15.201Z,12.88
2022-12-06T12:25:44.169Z,13.09
2022-12-06T12:28:30.675Z,12.48
2022-12-06T12:31:08.913Z,12.88
2022-12-06T12:33:37.253Z,12.73
2022-12-06T12:36:05.604Z,12.97
2022-12-06T12:39:13.333Z,13.08
2022-12-06T12:41:44.640Z,12.65
2022-12-06T12:44:36.876Z,13.16
2022-12-06T12:47:20.426Z,13.85
2022-12-06T12:50:20.536Z,14.34
2022-12-06T12:52:48.842Z,14.38
2022-12-06T12:55:18.891Z,14.61
2022-12-06T12:57:53.514Z,14.77
2022-12-06T13:00:31.199Z,15.07
2022-12-06T13:06:43.014Z,15.45
2022-12-06T13:09:49.177Z,15.26
2022-12-06T13:12:25.724Z,15.57
2022-12-06T13:15:20.437Z,15.56
2022-12-06T13:17:59.398Z,15.41
2022-12-06T13:20:34.656Z,15.26
2022-12-06T13:23:09.195Z,15.11
2022-12-06T13:25:37.576Z,15.54
2022-12-06T13:28:14.958Z,15.48
2022-12-06T13:30:46.155Z,15.13
2022-12-06T13:33:25.850Z,15.18
2022-12-06T13:36:00.835Z,15.08
2022-12-06T13:38:38.198Z,15.27
2022-12-06T13:41:11.765Z,16.08
2022-12-06T13:43:40.237Z,15.46
2022-12-06T13:46:14.578Z,15.53
2022-12-06T13:48:55.848Z,16.30
2022-12-06T13:51:31.084Z,18.26
2022-12-06T13:54:05.154Z,19.28
2022-12-06T13:56:33.630Z,19.32
2022-12-06T13:59:12.003Z,19.02
2022-12-06T14:01:42.330Z,19.22
2022-12-06T14:09:45.388Z,19.11
2022-12-06T14:12:20.770Z,18.24
2022-12-06T14:14:57.263Z,17.21
2022-12-06T14:18:01.724Z,16.79
2022-12-06T14:20:32.084Z,15.60
2022-12-06T14:23:00.467Z,13.91
2022-12-06T14:25:32.193Z,12.80
2022-12-06T14:28:13.261Z,12.92
2022-12-06T14:30:42.236Z,12.55
2022-12-06T14:33:23.226Z,12.20
2022-12-06T14:35:53.292Z,13.00
2022-12-06T14:38:25.328Z,12.86
2022-12-06T14:41:13.104Z,12.37
2022-12-06T14:43:46.398Z,12.77
2022-12-06T14:46:17.855Z,12.74
2022-12-06T14:49:05.973Z,12.79
2022-12-06T14:51:37.038Z,12.78
2022-12-06T14:54:32.618Z,12.55
2022-12-06T14:57:02.295Z,12.43
2022-12-06T15:02:28.315Z,12.42
2022-12-06T15:04:56.683Z,12.17
2022-12-06T15:07:43.595Z,12.26
2022-12-06T15:10:19.887Z,11.85
2022-12-06T15:12:55.605Z,11.27
2022-12-06T15:15:39.173Z,10.64
2022-12-06T15:18:16.336Z,10.31
2022-12-06T15:20:44.645Z,10.46
2022-12-06T15:23:47.355Z,10.45
2022-12-06T15:26:16.466Z,10.53
2022-12-06T15:28:45.206Z,10.58
2022-12-06T15:31:22.860Z,10.46
2022-12-06T15:33:51.446Z,10.09
2022-12-06T15:36:23.127Z,10.19
2022-12-06T15:38:51.527Z,9.92
2022-12-06T15:41:23.624Z,9.91
2022-12-06T15:43:53.843Z,9.95
2022-12-06T15:46:25.354Z,9.53
2022-12-06T15:48:54.447Z,9.48
2022-12-06T15:51:26.677Z,9.30
2022-12-06T15:53:57.516Z,9.41
2022-12-06T15:56:30.502Z,9.30
2022-12-06T15:58:58.844Z,9.24
2022-12-06T16:01:39.304Z,9.13
2022-12-06T16:04:17.173Z,9.40
2022-12-06T16:06:46.345Z,9.17
2022-12-06T16:09:16.885Z,9.15
2022-12-06T16:11:45.785Z,9.22
2022-12-06T16:14:14.633Z,9.40
2022-12-06T16:16:43.734Z,8.93
2022-12-06T16:19:11.925Z,8.98
2022-12-06T16:21:56.043Z,8.95
2022-12-06T16:24:24.445Z,9.02
2022-12-06T16:26:52.776Z,8.79
2022-12-06T16:29:26.300Z,8.93
2022-12-06T16:31:54.785Z,8.73
2022-12-06T16:34:23.052Z,8.99
2022-12-06T16:37:01.771Z,8.86
2022-12-06T16:39:33.736Z,9.39
2022-12-06T16:42:06.418Z,8.82
2022-12-06T16:44:51.490Z,9.25
2022-12-06T16:49:48.792Z,9.20
2022-12-06T16:52:17.932Z,9.18
2022-12-06T16:54:46.002Z,8.82
2022-12-06T16:57:14.975Z,8.89
2022-12-06T16:59:43.415Z,8.64
2022-12-06T17:02:29.359Z,8.69
2022-12-06T17:05:01.927Z,8.53
2022-12-06T17:07:31.017Z,8.57
2022-12-06T17:09:59.494Z,8.38
2022-12-06T17:12:28.924Z,8.24
2022-12-06T17:14:57.105Z,8.22
2022-12-06T17:17:26.635Z,8.18
2022-12-06T17:19:56.449Z,8.36
2022-12-06T17:22:26.047Z,8.76
2022-12-06T17:24:54.556Z,8.63
2022-12-06T17:27:23.176Z,8.17
2022-12-06T17:29:51.386Z,8.66
2022-12-06T17:32:21.114Z,8.80
2022-12-06T17:34:49.317Z,8.65
2022-12-06T17:37:17.794Z,8.68
2022-12-06T17:39:46.063Z,8.35
2022-12-06T17:42:34.308Z,8.08
2022-12-06T17:45:02.993Z,8.32
2022-12-06T17:47:32.219Z,8.74
2022-12-06T17:50:00.870Z,8.75
2022-12-06T17:52:29.588Z,8.80
2022-12-06T17:54:57.984Z,8.59
2022-12-06T17:57:26.472Z,8.82
2022-12-06T17:59:54.494Z,9.06
2022-12-06T18:02:24.813Z,9.27
2022-12-06T18:04:54.369Z,9.23
2022-12-06T18:07:22.979Z,9.22
2022-12-06T18:09:51.154Z,9.22
2022-12-06T18:12:19.636Z,9.22
2022-12-06T18:14:47.695Z,9.24
2022-12-06T18:17:16.205Z,9.17
2022-12-06T18:19:47.073Z,9.29
2022-12-06T18:22:15.789Z,9.17
2022-12-06T18:24:44.953Z,9.18
2022-12-06T18:27:13.412Z,9.30
2022-12-06T18:29:41.909Z,9.07
2022-12-06T18:32:10.482Z,8.75
2022-12-06T18:34:38.719Z,8.62
2022-12-06T18:37:07.168Z,8.55
2022-12-06T18:39:35.225Z,8.57
2022-12-06T18:42:03.726Z,8.43
2022-12-06T18:44:32.575Z,8.70
2022-12-06T18:47:01.136Z,8.86
2022-12-06T18:49:29.985Z,8.57
2022-12-06T18:51:58.985Z,8.84
2022-12-06T18:54:28.747Z,8.80
2022-12-06T18:56:59.425Z,8.20
2022-12-06T18:59:27.970Z,8.56
2022-12-06T19:01:56.850Z,8.21
2022-12-06T19:04:25.325Z,8.33
2022-12-06T19:06:54.640Z,8.39
2022-12-06T19:09:23.414Z,8.42
2022-12-06T19:11:51.791Z,8.50
2022-12-06T19:14:19.887Z,8.38
2022-12-06T19:16:50.108Z,8.24
2022-12-06T19:19:26.125Z,8.12
2022-12-06T19:21:55.733Z,8.33
2022-12-06T19:24:26.031Z,7.95
2022-12-06T19:26:58.157Z,8.32
2022-12-06T19:29:27.435Z,8.10
2022-12-06T19:31:55.914Z,7.82
2022-12-06T19:34:27.081Z,7.62
2022-12-06T19:36:57.344Z,7.99
2022-12-06T19:39:26.394Z,8.08
2022-12-06T19:42:14.143Z,7.70
2022-12-06T19:44:42.738Z,8.15
2022-12-06T19:47:11.817Z,8.14
2022-12-06T19:49:40.036Z,8.38
2022-12-06T19:52:08.522Z,7.62
2022-12-06T19:54:37.856Z,7.56
2022-12-06T19:57:06.341Z,7.60
2022-12-06T19:59:37.446Z,7.88
2022-12-06T20:02:08.564Z,7.56
2022-12-06T20:04:39.934Z,7.35
2022-12-06T20:07:09.018Z,7.17
2022-12-06T20:09:37.331Z,7.22
2022-12-06T20:12:06.229Z,7.42
2022-12-06T20:14:41.985Z,7.35
2022-12-06T20:17:18.310Z,7.38
2022-12-06T20:19:46.859Z,7.71
2022-12-06T20:22:17.496Z,7.77
2022-12-06T20:24:45.923Z,7.51
2022-12-06T20:27:14.696Z,7.32
2022-12-06T20:29:42.915Z,7.39
2022-12-06T20:32:13.148Z,7.92
2022-12-06T20:34:41.405Z,7.62
2022-12-06T20:37:10.779Z,7.47
2022-12-06T20:39:38.965Z,7.31
2022-12-06T20:42:07.863Z,7.68
2022-12-06T20:44:36.345Z,7.89
2022-12-06T20:47:04.943Z,7.79
2022-12-06T20:49:33.252Z,7.86
2022-12-06T20:52:03.101Z,8.02
2022-12-06T20:54:31.501Z,8.05
2022-12-06T20:56:59.947Z,8.21
2022-12-06T20:59:29.770Z,8.12
2022-12-06T21:01:58.332Z,8.05
2022-12-06T21:04:27.729Z,8.13
2022-12-06T21:06:56.865Z,8.36
2022-12-06T21:09:25.211Z,8.21
2022-12-06T21:11:54.680Z,8.40
2022-12-06T21:14:23.138Z,8.49
2022-12-06T21:16:51.884Z,8.39
2022-12-06T21:19:20.270Z,8.11
2022-12-06T21:21:54.413Z,8.16
2022-12-06T21:24:22.546Z,8.20
2022-12-06T21:26:50.915Z,8.16
2022-12-06T21:29:30.555Z,8.10
2022-12-06T21:32:02.506Z,8.16
2022-12-06T21:34:30.679Z,8.12
2022-12-06T21:37:00.233Z,7.79
2022-12-06T21:39:28.340Z,7.72
2022-12-06T21:41:56.991Z,7.62
2022-12-06T21:44:25.275Z,7.76
2022-12-06T21:46:54.219Z,7.60
2022-12-06T21:49:22.495Z,7.72
2022-12-06T21:51:55.047Z,7.35
2022-12-06T21:54:26.692Z,7.04
2022-12-06T21:56:57.384Z,7.44
2022-12-06T21:59:27.023Z,7.43
2022-12-06T22:01:55.498Z,7.23
2022-12-06T22:04:24.066Z,7.72
2022-12-06T22:06:52.663Z,7.70
2022-12-06T22:09:20.807Z,7.85
2022-12-06T22:11:49.349Z,7.98
2022-12-06T22:14:17.443Z,7.86
2022-12-06T22:16:45.823Z,7.99
2022-12-06T22:19:13.844Z,7.85
2022-12-06T22:21:42.342Z,7.77
2022-12-06T22:24:10.506Z,7.85
2022-12-06T22:26:40.804Z,8.05
2022-12-06T22:29:09.807Z,8.12
2022-12-06T22:31:38.467Z,7.74
2022-12-06T22:34:06.423Z,7.58
2022-12-06T22:36:36.335Z,7.26
2022-12-06T22:39:06.414Z,7.07
2022-12-06T22:41:36.154Z,7.18
2022-12-06T22:44:06.633Z,7.42
2022-12-06T22:46:36.903Z,6.84
2022-12-06T22:49:06.572Z,6.87
2022-12-06T22:51:37.981Z,7.23
2022-12-06T22:54:10.610Z,7.12
2022-12-06T22:56:41.695Z,6.64
2022-12-06T22:59:11.132Z,6.61
2022-12-06T23:01:41.589Z,6.36
2022-12-06T23:04:11.615Z,6.67
2022-12-06T23:06:40.364Z,6.26
2022-12-06T23:09:08.388Z,5.99
2022-12-06T23:11:37.631Z,6.46
2022-12-06T23:14:08.003Z,6.10
2022-12-06T23:16:37.344Z,6.57
2022-12-06T23:19:05.639Z,6.72
2022-12-06T23:21:36.699Z,6.54
2022-12-06T23:24:07.860Z,6.77
2022-12-06T23:26:40.543Z,7.07
2022-12-06T23:29:09.280Z,6.55
2022-12-06T23:31:42.055Z,6.36
2022-12-06T23:34:26.326Z,6.28
2022-12-06T23:36:55.253Z,6.38
2022-12-06T23:39:23.453Z,6.59
2022-12-06T23:41:51.910Z,6.85
2022-12-06T23:44:20.037Z,6.94
2022-12-06T23:46:48.385Z,7.15
2022-12-06T23:49:19.420Z,7.18
2022-12-06T23:51:48.825Z,7.24
2022-12-06T23:54:18.339Z,7.35
2022-12-06T23:56:47.024Z,7.45
2022-12-06T23:59:16.329Z,7.54
